<?xml version="1.0" encoding="utf-8"?>
<gpx xmlns:xsi="http://www.w3.org/2001/XMLSchema-instance" xmlns:xsd="http://www.w3.org/2001/XMLSchema" version="1.1" creator="Shapelink.com" xmlns="http://www.topografix.com/GPX/1/1" xmlns:gpxtpx="http://www.garmin.com/xmlschemas/TrackPointExtension/v1">
  <metadata>
    <name>Løping 7.44 km, 2014-05-31</name>
    <desc></desc>
    <author><name>Carl Grundberg</name></author> 
    <time>2014-05-31T14:05:38Z</time>
  </metadata>
  <trk>
    <name>Løping 7.44 km, 2014-05-31</name>
    <trkseg>
      <trkpt lat="56.3489655" lon="13.6465707">
        <ele>142.893</ele>
        <time>2014-05-31T14:05:38Z</time>
      </trkpt>
      <trkpt lat="56.3489271" lon="13.646671">
        <ele>138.567</ele>
        <time>2014-05-31T14:05:41Z</time>
      </trkpt>
      <trkpt lat="56.3487331" lon="13.6468531">
        <ele>133.28</ele>
        <time>2014-05-31T14:05:47Z</time>
      </trkpt>
      <trkpt lat="56.3485339" lon="13.6470538">
        <ele>129.435</ele>
        <time>2014-05-31T14:05:53Z</time>
      </trkpt>
      <trkpt lat="56.3482852" lon="13.6473032">
        <ele>126.551</ele>
        <time>2014-05-31T14:06:00Z</time>
      </trkpt>
      <trkpt lat="56.3479907" lon="13.6476147">
        <ele>124.628</ele>
        <time>2014-05-31T14:06:08Z</time>
      </trkpt>
      <trkpt lat="56.3477532" lon="13.6478944">
        <ele>124.147</ele>
        <time>2014-05-31T14:06:14Z</time>
      </trkpt>
      <trkpt lat="56.3477104" lon="13.6479392">
        <ele>123.667</ele>
        <time>2014-05-31T14:06:15Z</time>
      </trkpt>
      <trkpt lat="56.3475085" lon="13.6481539">
        <ele>122.705</ele>
        <time>2014-05-31T14:06:20Z</time>
      </trkpt>
      <trkpt lat="56.3472384" lon="13.6484756">
        <ele>122.225</ele>
        <time>2014-05-31T14:06:27Z</time>
      </trkpt>
      <trkpt lat="56.3470453" lon="13.6486425">
        <ele>122.225</ele>
        <time>2014-05-31T14:06:33Z</time>
      </trkpt>
      <trkpt lat="56.3469686" lon="13.6487273">
        <ele>121.264</ele>
        <time>2014-05-31T14:06:35Z</time>
      </trkpt>
      <trkpt lat="56.3467402" lon="13.649012">
        <ele>120.783</ele>
        <time>2014-05-31T14:06:40Z</time>
      </trkpt>
      <trkpt lat="56.3464787" lon="13.6493323">
        <ele>120.302</ele>
        <time>2014-05-31T14:06:46Z</time>
      </trkpt>
      <trkpt lat="56.3462531" lon="13.6495972">
        <ele>119.341</ele>
        <time>2014-05-31T14:06:51Z</time>
      </trkpt>
      <trkpt lat="56.3459103" lon="13.6499865">
        <ele>117.899</ele>
        <time>2014-05-31T14:06:58Z</time>
      </trkpt>
      <trkpt lat="56.3455285" lon="13.6504238">
        <ele>117.899</ele>
        <time>2014-05-31T14:07:06Z</time>
      </trkpt>
      <trkpt lat="56.3452118" lon="13.650789">
        <ele>117.418</ele>
        <time>2014-05-31T14:07:13Z</time>
      </trkpt>
      <trkpt lat="56.3448195" lon="13.6512443">
        <ele>116.457</ele>
        <time>2014-05-31T14:07:21Z</time>
      </trkpt>
      <trkpt lat="56.3445209" lon="13.6515902">
        <ele>113.092</ele>
        <time>2014-05-31T14:07:26Z</time>
      </trkpt>
      <trkpt lat="56.344349" lon="13.6520707">
        <ele>110.689</ele>
        <time>2014-05-31T14:07:31Z</time>
      </trkpt>
      <trkpt lat="56.3443131" lon="13.6524373">
        <ele>110.208</ele>
        <time>2014-05-31T14:07:34Z</time>
      </trkpt>
      <trkpt lat="56.3441646" lon="13.653175">
        <ele>109.728</ele>
        <time>2014-05-31T14:07:41Z</time>
      </trkpt>
      <trkpt lat="56.344153" lon="13.6535617">
        <ele>108.766</ele>
        <time>2014-05-31T14:07:45Z</time>
      </trkpt>
      <trkpt lat="56.3441525" lon="13.6536702">
        <ele>108.286</ele>
        <time>2014-05-31T14:07:46Z</time>
      </trkpt>
      <trkpt lat="56.344181" lon="13.6540992">
        <ele>108.286</ele>
        <time>2014-05-31T14:07:50Z</time>
      </trkpt>
      <trkpt lat="56.3442237" lon="13.6543072">
        <ele>108.286</ele>
        <time>2014-05-31T14:07:52Z</time>
      </trkpt>
      <trkpt lat="56.3442599" lon="13.6545201">
        <ele>107.805</ele>
        <time>2014-05-31T14:07:54Z</time>
      </trkpt>
      <trkpt lat="56.3442273" lon="13.654922">
        <ele>107.805</ele>
        <time>2014-05-31T14:07:58Z</time>
      </trkpt>
      <trkpt lat="56.3441568" lon="13.6550704">
        <ele>107.805</ele>
        <time>2014-05-31T14:08:00Z</time>
      </trkpt>
      <trkpt lat="56.3440408" lon="13.6552449">
        <ele>108.286</ele>
        <time>2014-05-31T14:08:03Z</time>
      </trkpt>
      <trkpt lat="56.3438528" lon="13.6555608">
        <ele>108.766</ele>
        <time>2014-05-31T14:08:08Z</time>
      </trkpt>
      <trkpt lat="56.3435138" lon="13.6560754">
        <ele>109.728</ele>
        <time>2014-05-31T14:08:17Z</time>
      </trkpt>
      <trkpt lat="56.3433343" lon="13.6564006">
        <ele>110.689</ele>
        <time>2014-05-31T14:08:23Z</time>
      </trkpt>
      <trkpt lat="56.3431476" lon="13.6569326">
        <ele>110.689</ele>
        <time>2014-05-31T14:08:30Z</time>
      </trkpt>
      <trkpt lat="56.343117" lon="13.6570217">
        <ele>110.208</ele>
        <time>2014-05-31T14:08:31Z</time>
      </trkpt>
      <trkpt lat="56.3430804" lon="13.6572182">
        <ele>110.689</ele>
        <time>2014-05-31T14:08:33Z</time>
      </trkpt>
      <trkpt lat="56.3431204" lon="13.657401">
        <ele>110.689</ele>
        <time>2014-05-31T14:08:35Z</time>
      </trkpt>
      <trkpt lat="56.3432037" lon="13.6575316">
        <ele>110.689</ele>
        <time>2014-05-31T14:08:37Z</time>
      </trkpt>
      <trkpt lat="56.3436252" lon="13.657995">
        <ele>110.208</ele>
        <time>2014-05-31T14:08:46Z</time>
      </trkpt>
      <trkpt lat="56.3439137" lon="13.6582461">
        <ele>110.689</ele>
        <time>2014-05-31T14:08:52Z</time>
      </trkpt>
      <trkpt lat="56.3442429" lon="13.6584609">
        <ele>111.17</ele>
        <time>2014-05-31T14:08:59Z</time>
      </trkpt>
      <trkpt lat="56.3442878" lon="13.6584908">
        <ele>111.17</ele>
        <time>2014-05-31T14:09:00Z</time>
      </trkpt>
      <trkpt lat="56.3444764" lon="13.6585566">
        <ele>111.17</ele>
        <time>2014-05-31T14:09:04Z</time>
      </trkpt>
      <trkpt lat="56.3448747" lon="13.6586167">
        <ele>113.092</ele>
        <time>2014-05-31T14:09:13Z</time>
      </trkpt>
      <trkpt lat="56.3451899" lon="13.6586741">
        <ele>114.534</ele>
        <time>2014-05-31T14:09:22Z</time>
      </trkpt>
      <trkpt lat="56.3454304" lon="13.6587066">
        <ele>115.015</ele>
        <time>2014-05-31T14:09:29Z</time>
      </trkpt>
      <trkpt lat="56.3456698" lon="13.6587514">
        <ele>115.496</ele>
        <time>2014-05-31T14:09:36Z</time>
      </trkpt>
      <trkpt lat="56.3459132" lon="13.6587694">
        <ele>115.496</ele>
        <time>2014-05-31T14:09:42Z</time>
      </trkpt>
      <trkpt lat="56.3462759" lon="13.6588268">
        <ele>115.976</ele>
        <time>2014-05-31T14:09:50Z</time>
      </trkpt>
      <trkpt lat="56.3465132" lon="13.6588874">
        <ele>116.457</ele>
        <time>2014-05-31T14:09:55Z</time>
      </trkpt>
      <trkpt lat="56.3466122" lon="13.659128">
        <ele>116.457</ele>
        <time>2014-05-31T14:09:59Z</time>
      </trkpt>
      <trkpt lat="56.3466105" lon="13.6592124">
        <ele>116.457</ele>
        <time>2014-05-31T14:10:00Z</time>
      </trkpt>
      <trkpt lat="56.3465639" lon="13.6599156">
        <ele>114.054</ele>
        <time>2014-05-31T14:10:07Z</time>
      </trkpt>
      <trkpt lat="56.3465397" lon="13.6602576">
        <ele>113.092</ele>
        <time>2014-05-31T14:10:10Z</time>
      </trkpt>
      <trkpt lat="56.3466278" lon="13.6605362">
        <ele>112.612</ele>
        <time>2014-05-31T14:10:14Z</time>
      </trkpt>
      <trkpt lat="56.3466796" lon="13.6605561">
        <ele>112.131</ele>
        <time>2014-05-31T14:10:15Z</time>
      </trkpt>
      <trkpt lat="56.3470508" lon="13.6606777">
        <ele>110.208</ele>
        <time>2014-05-31T14:10:21Z</time>
      </trkpt>
      <trkpt lat="56.3476296" lon="13.6608574">
        <ele>108.286</ele>
        <time>2014-05-31T14:10:29Z</time>
      </trkpt>
      <trkpt lat="56.3480037" lon="13.6609703">
        <ele>108.286</ele>
        <time>2014-05-31T14:10:35Z</time>
      </trkpt>
      <trkpt lat="56.3483749" lon="13.6610418">
        <ele>108.286</ele>
        <time>2014-05-31T14:10:42Z</time>
      </trkpt>
      <trkpt lat="56.3487077" lon="13.6610499">
        <ele>108.286</ele>
        <time>2014-05-31T14:10:49Z</time>
      </trkpt>
      <trkpt lat="56.3490548" lon="13.6610207">
        <ele>109.247</ele>
        <time>2014-05-31T14:10:56Z</time>
      </trkpt>
      <trkpt lat="56.3494706" lon="13.6610333">
        <ele>109.728</ele>
        <time>2014-05-31T14:11:04Z</time>
      </trkpt>
      <trkpt lat="56.3498389" lon="13.6610221">
        <ele>109.247</ele>
        <time>2014-05-31T14:11:10Z</time>
      </trkpt>
      <trkpt lat="56.3499434" lon="13.6610112">
        <ele>109.247</ele>
        <time>2014-05-31T14:11:12Z</time>
      </trkpt>
      <trkpt lat="56.3500616" lon="13.6611793">
        <ele>109.247</ele>
        <time>2014-05-31T14:11:16Z</time>
      </trkpt>
      <trkpt lat="56.3500527" lon="13.6612506">
        <ele>108.766</ele>
        <time>2014-05-31T14:11:17Z</time>
      </trkpt>
      <trkpt lat="56.3500268" lon="13.6615987">
        <ele>109.247</ele>
        <time>2014-05-31T14:11:22Z</time>
      </trkpt>
      <trkpt lat="56.3501036" lon="13.6617677">
        <ele>109.728</ele>
        <time>2014-05-31T14:11:26Z</time>
      </trkpt>
      <trkpt lat="56.3501419" lon="13.661772">
        <ele>109.728</ele>
        <time>2014-05-31T14:11:27Z</time>
      </trkpt>
      <trkpt lat="56.3504386" lon="13.6617444">
        <ele>110.689</ele>
        <time>2014-05-31T14:11:34Z</time>
      </trkpt>
      <trkpt lat="56.3504818" lon="13.6617315">
        <ele>110.689</ele>
        <time>2014-05-31T14:11:35Z</time>
      </trkpt>
      <trkpt lat="56.3505653" lon="13.6617642">
        <ele>111.17</ele>
        <time>2014-05-31T14:11:37Z</time>
      </trkpt>
      <trkpt lat="56.350603" lon="13.661795">
        <ele>111.17</ele>
        <time>2014-05-31T14:11:38Z</time>
      </trkpt>
      <trkpt lat="56.350776" lon="13.6618198">
        <ele>111.17</ele>
        <time>2014-05-31T14:11:42Z</time>
      </trkpt>
      <trkpt lat="56.3512384" lon="13.6618692">
        <ele>111.17</ele>
        <time>2014-05-31T14:11:51Z</time>
      </trkpt>
      <trkpt lat="56.3514209" lon="13.6618903">
        <ele>110.208</ele>
        <time>2014-05-31T14:11:55Z</time>
      </trkpt>
      <trkpt lat="56.3516376" lon="13.6619348">
        <ele>110.689</ele>
        <time>2014-05-31T14:12:00Z</time>
      </trkpt>
      <trkpt lat="56.3516847" lon="13.6619103">
        <ele>111.17</ele>
        <time>2014-05-31T14:12:01Z</time>
      </trkpt>
      <trkpt lat="56.3518265" lon="13.6618268">
        <ele>111.65</ele>
        <time>2014-05-31T14:12:04Z</time>
      </trkpt>
      <trkpt lat="56.3520791" lon="13.6615502">
        <ele>110.689</ele>
        <time>2014-05-31T14:12:10Z</time>
      </trkpt>
      <trkpt lat="56.3524123" lon="13.6609258">
        <ele>109.728</ele>
        <time>2014-05-31T14:12:17Z</time>
      </trkpt>
      <trkpt lat="56.3526144" lon="13.6606393">
        <ele>110.689</ele>
        <time>2014-05-31T14:12:22Z</time>
      </trkpt>
      <trkpt lat="56.352833" lon="13.6603976">
        <ele>111.65</ele>
        <time>2014-05-31T14:12:28Z</time>
      </trkpt>
      <trkpt lat="56.3529251" lon="13.6602381">
        <ele>111.65</ele>
        <time>2014-05-31T14:12:31Z</time>
      </trkpt>
      <trkpt lat="56.3530851" lon="13.6601434">
        <ele>111.17</ele>
        <time>2014-05-31T14:12:35Z</time>
      </trkpt>
      <trkpt lat="56.3532641" lon="13.6601727">
        <ele>111.17</ele>
        <time>2014-05-31T14:12:39Z</time>
      </trkpt>
      <trkpt lat="56.3533765" lon="13.6599851">
        <ele>112.131</ele>
        <time>2014-05-31T14:12:43Z</time>
      </trkpt>
      <trkpt lat="56.35342" lon="13.659617">
        <ele>113.092</ele>
        <time>2014-05-31T14:12:48Z</time>
      </trkpt>
      <trkpt lat="56.3534888" lon="13.6593704">
        <ele>113.573</ele>
        <time>2014-05-31T14:12:52Z</time>
      </trkpt>
      <trkpt lat="56.3535038" lon="13.6589778">
        <ele>115.015</ele>
        <time>2014-05-31T14:12:57Z</time>
      </trkpt>
      <trkpt lat="56.35355" lon="13.6583483">
        <ele>115.015</ele>
        <time>2014-05-31T14:13:05Z</time>
      </trkpt>
      <trkpt lat="56.3535537" lon="13.6582737">
        <ele>115.015</ele>
        <time>2014-05-31T14:13:06Z</time>
      </trkpt>
      <trkpt lat="56.353521" lon="13.6579298">
        <ele>115.015</ele>
        <time>2014-05-31T14:13:11Z</time>
      </trkpt>
      <trkpt lat="56.3534834" lon="13.6577039">
        <ele>115.496</ele>
        <time>2014-05-31T14:13:16Z</time>
      </trkpt>
      <trkpt lat="56.3534546" lon="13.6576224">
        <ele>115.496</ele>
        <time>2014-05-31T14:13:23Z</time>
      </trkpt>
      <trkpt lat="56.3534484" lon="13.6575998">
        <ele>115.015</ele>
        <time>2014-05-31T14:13:24Z</time>
      </trkpt>
      <trkpt lat="56.3534475" lon="13.6575248">
        <ele>114.534</ele>
        <time>2014-05-31T14:13:28Z</time>
      </trkpt>
      <trkpt lat="56.3534153" lon="13.657432">
        <ele>114.534</ele>
        <time>2014-05-31T14:13:34Z</time>
      </trkpt>
      <trkpt lat="56.3533856" lon="13.6573412">
        <ele>114.534</ele>
        <time>2014-05-31T14:13:38Z</time>
      </trkpt>
      <trkpt lat="56.3533593" lon="13.6571917">
        <ele>113.573</ele>
        <time>2014-05-31T14:13:45Z</time>
      </trkpt>
      <trkpt lat="56.3533508" lon="13.6570979">
        <ele>112.612</ele>
        <time>2014-05-31T14:13:52Z</time>
      </trkpt>
      <trkpt lat="56.3533439" lon="13.6570839">
        <ele>113.573</ele>
        <time>2014-05-31T14:13:56Z</time>
      </trkpt>
      <trkpt lat="56.3532779" lon="13.6569347">
        <ele>113.573</ele>
        <time>2014-05-31T14:14:01Z</time>
      </trkpt>
      <trkpt lat="56.3531763" lon="13.6566239">
        <ele>114.054</ele>
        <time>2014-05-31T14:14:08Z</time>
      </trkpt>
      <trkpt lat="56.353107" lon="13.6562943">
        <ele>115.015</ele>
        <time>2014-05-31T14:14:15Z</time>
      </trkpt>
      <trkpt lat="56.3530687" lon="13.6560914">
        <ele>116.457</ele>
        <time>2014-05-31T14:14:19Z</time>
      </trkpt>
      <trkpt lat="56.3530579" lon="13.6558589">
        <ele>117.899</ele>
        <time>2014-05-31T14:14:24Z</time>
      </trkpt>
      <trkpt lat="56.35304" lon="13.6556245">
        <ele>119.821</ele>
        <time>2014-05-31T14:14:29Z</time>
      </trkpt>
      <trkpt lat="56.3530625" lon="13.6553346">
        <ele>122.225</ele>
        <time>2014-05-31T14:14:35Z</time>
      </trkpt>
      <trkpt lat="56.3530795" lon="13.6550855">
        <ele>123.186</ele>
        <time>2014-05-31T14:14:40Z</time>
      </trkpt>
      <trkpt lat="56.3531091" lon="13.6548182">
        <ele>124.147</ele>
        <time>2014-05-31T14:14:46Z</time>
      </trkpt>
      <trkpt lat="56.3531159" lon="13.6545318">
        <ele>124.628</ele>
        <time>2014-05-31T14:14:52Z</time>
      </trkpt>
      <trkpt lat="56.3531035" lon="13.6543035">
        <ele>125.109</ele>
        <time>2014-05-31T14:14:57Z</time>
      </trkpt>
      <trkpt lat="56.3530411" lon="13.6541334">
        <ele>126.07</ele>
        <time>2014-05-31T14:15:01Z</time>
      </trkpt>
      <trkpt lat="56.3529614" lon="13.653926">
        <ele>126.551</ele>
        <time>2014-05-31T14:15:06Z</time>
      </trkpt>
      <trkpt lat="56.3528921" lon="13.6536438">
        <ele>127.031</ele>
        <time>2014-05-31T14:15:12Z</time>
      </trkpt>
      <trkpt lat="56.3528521" lon="13.6533335">
        <ele>127.031</ele>
        <time>2014-05-31T14:15:18Z</time>
      </trkpt>
      <trkpt lat="56.3527859" lon="13.6530306">
        <ele>127.512</ele>
        <time>2014-05-31T14:15:24Z</time>
      </trkpt>
      <trkpt lat="56.3527546" lon="13.6527424">
        <ele>127.031</ele>
        <time>2014-05-31T14:15:29Z</time>
      </trkpt>
      <trkpt lat="56.3527791" lon="13.652341">
        <ele>124.628</ele>
        <time>2014-05-31T14:15:36Z</time>
      </trkpt>
      <trkpt lat="56.3528522" lon="13.6520897">
        <ele>123.186</ele>
        <time>2014-05-31T14:15:41Z</time>
      </trkpt>
      <trkpt lat="56.3529863" lon="13.6518458">
        <ele>122.225</ele>
        <time>2014-05-31T14:15:47Z</time>
      </trkpt>
      <trkpt lat="56.3530649" lon="13.6516753">
        <ele>121.264</ele>
        <time>2014-05-31T14:15:51Z</time>
      </trkpt>
      <trkpt lat="56.3531589" lon="13.6514791">
        <ele>119.821</ele>
        <time>2014-05-31T14:15:56Z</time>
      </trkpt>
      <trkpt lat="56.3532801" lon="13.6513075">
        <ele>118.86</ele>
        <time>2014-05-31T14:16:01Z</time>
      </trkpt>
      <trkpt lat="56.3533007" lon="13.6512727">
        <ele>118.86</ele>
        <time>2014-05-31T14:16:02Z</time>
      </trkpt>
      <trkpt lat="56.3533819" lon="13.6511422">
        <ele>119.341</ele>
        <time>2014-05-31T14:16:06Z</time>
      </trkpt>
      <trkpt lat="56.3535261" lon="13.6508859">
        <ele>119.821</ele>
        <time>2014-05-31T14:16:13Z</time>
      </trkpt>
      <trkpt lat="56.353625" lon="13.6506308">
        <ele>120.783</ele>
        <time>2014-05-31T14:16:19Z</time>
      </trkpt>
      <trkpt lat="56.3536875" lon="13.6503844">
        <ele>121.264</ele>
        <time>2014-05-31T14:16:24Z</time>
      </trkpt>
      <trkpt lat="56.3537514" lon="13.6501456">
        <ele>121.744</ele>
        <time>2014-05-31T14:16:29Z</time>
      </trkpt>
      <trkpt lat="56.3538411" lon="13.6499508">
        <ele>121.744</ele>
        <time>2014-05-31T14:16:34Z</time>
      </trkpt>
      <trkpt lat="56.3539317" lon="13.6498161">
        <ele>122.705</ele>
        <time>2014-05-31T14:16:38Z</time>
      </trkpt>
      <trkpt lat="56.3540155" lon="13.6496614">
        <ele>122.705</ele>
        <time>2014-05-31T14:16:43Z</time>
      </trkpt>
      <trkpt lat="56.3540528" lon="13.6495842">
        <ele>122.705</ele>
        <time>2014-05-31T14:16:45Z</time>
      </trkpt>
      <trkpt lat="56.3540896" lon="13.6494135">
        <ele>123.186</ele>
        <time>2014-05-31T14:16:49Z</time>
      </trkpt>
      <trkpt lat="56.3541364" lon="13.649306">
        <ele>123.667</ele>
        <time>2014-05-31T14:16:52Z</time>
      </trkpt>
      <trkpt lat="56.354209" lon="13.6491133">
        <ele>124.628</ele>
        <time>2014-05-31T14:16:57Z</time>
      </trkpt>
      <trkpt lat="56.3542437" lon="13.6488971">
        <ele>126.551</ele>
        <time>2014-05-31T14:17:02Z</time>
      </trkpt>
      <trkpt lat="56.3542863" lon="13.6486538">
        <ele>127.512</ele>
        <time>2014-05-31T14:17:07Z</time>
      </trkpt>
      <trkpt lat="56.3543462" lon="13.6484796">
        <ele>127.993</ele>
        <time>2014-05-31T14:17:12Z</time>
      </trkpt>
      <trkpt lat="56.3544611" lon="13.6484275">
        <ele>127.993</ele>
        <time>2014-05-31T14:17:16Z</time>
      </trkpt>
      <trkpt lat="56.3545407" lon="13.6484475">
        <ele>127.512</ele>
        <time>2014-05-31T14:17:19Z</time>
      </trkpt>
      <trkpt lat="56.3546018" lon="13.6484958">
        <ele>127.512</ele>
        <time>2014-05-31T14:17:22Z</time>
      </trkpt>
      <trkpt lat="56.35465" lon="13.6485217">
        <ele>127.512</ele>
        <time>2014-05-31T14:17:24Z</time>
      </trkpt>
      <trkpt lat="56.35475" lon="13.6486056">
        <ele>127.993</ele>
        <time>2014-05-31T14:17:29Z</time>
      </trkpt>
      <trkpt lat="56.3548031" lon="13.6486481">
        <ele>128.473</ele>
        <time>2014-05-31T14:17:31Z</time>
      </trkpt>
      <trkpt lat="56.3549714" lon="13.648775">
        <ele>128.954</ele>
        <time>2014-05-31T14:17:38Z</time>
      </trkpt>
      <trkpt lat="56.3549946" lon="13.6487846">
        <ele>128.954</ele>
        <time>2014-05-31T14:17:39Z</time>
      </trkpt>
      <trkpt lat="56.3551288" lon="13.6488962">
        <ele>130.396</ele>
        <time>2014-05-31T14:17:45Z</time>
      </trkpt>
      <trkpt lat="56.3552454" lon="13.6489515">
        <ele>130.877</ele>
        <time>2014-05-31T14:17:50Z</time>
      </trkpt>
      <trkpt lat="56.3553345" lon="13.6489053">
        <ele>130.396</ele>
        <time>2014-05-31T14:17:54Z</time>
      </trkpt>
      <trkpt lat="56.3554584" lon="13.648822">
        <ele>130.877</ele>
        <time>2014-05-31T14:18:00Z</time>
      </trkpt>
      <trkpt lat="56.3555396" lon="13.6486807">
        <ele>131.838</ele>
        <time>2014-05-31T14:18:04Z</time>
      </trkpt>
      <trkpt lat="56.3555961" lon="13.6485055">
        <ele>131.357</ele>
        <time>2014-05-31T14:18:09Z</time>
      </trkpt>
      <trkpt lat="56.35572" lon="13.6482839">
        <ele>131.357</ele>
        <time>2014-05-31T14:18:16Z</time>
      </trkpt>
      <trkpt lat="56.3558209" lon="13.6481606">
        <ele>131.357</ele>
        <time>2014-05-31T14:18:20Z</time>
      </trkpt>
      <trkpt lat="56.3559155" lon="13.6480777">
        <ele>130.396</ele>
        <time>2014-05-31T14:18:24Z</time>
      </trkpt>
      <trkpt lat="56.3559567" lon="13.6480292">
        <ele>129.435</ele>
        <time>2014-05-31T14:18:26Z</time>
      </trkpt>
      <trkpt lat="56.356128" lon="13.6479292">
        <ele>127.512</ele>
        <time>2014-05-31T14:18:32Z</time>
      </trkpt>
      <trkpt lat="56.3562773" lon="13.6478767">
        <ele>126.07</ele>
        <time>2014-05-31T14:18:37Z</time>
      </trkpt>
      <trkpt lat="56.3564014" lon="13.6478275">
        <ele>125.589</ele>
        <time>2014-05-31T14:18:41Z</time>
      </trkpt>
      <trkpt lat="56.35654" lon="13.6476907">
        <ele>126.551</ele>
        <time>2014-05-31T14:18:46Z</time>
      </trkpt>
      <trkpt lat="56.3566502" lon="13.6475821">
        <ele>126.551</ele>
        <time>2014-05-31T14:18:50Z</time>
      </trkpt>
      <trkpt lat="56.3567863" lon="13.6474415">
        <ele>125.109</ele>
        <time>2014-05-31T14:18:55Z</time>
      </trkpt>
      <trkpt lat="56.3569388" lon="13.647439">
        <ele>123.667</ele>
        <time>2014-05-31T14:19:00Z</time>
      </trkpt>
      <trkpt lat="56.3571133" lon="13.6475959">
        <ele>123.186</ele>
        <time>2014-05-31T14:19:06Z</time>
      </trkpt>
      <trkpt lat="56.3572614" lon="13.6476712">
        <ele>122.705</ele>
        <time>2014-05-31T14:19:11Z</time>
      </trkpt>
      <trkpt lat="56.3574302" lon="13.6477153">
        <ele>121.744</ele>
        <time>2014-05-31T14:19:17Z</time>
      </trkpt>
      <trkpt lat="56.357535" lon="13.6476948">
        <ele>121.744</ele>
        <time>2014-05-31T14:19:21Z</time>
      </trkpt>
      <trkpt lat="56.357585" lon="13.6476788">
        <ele>121.264</ele>
        <time>2014-05-31T14:19:23Z</time>
      </trkpt>
      <trkpt lat="56.3577111" lon="13.6476196">
        <ele>120.302</ele>
        <time>2014-05-31T14:19:28Z</time>
      </trkpt>
      <trkpt lat="56.3578133" lon="13.6476337">
        <ele>120.302</ele>
        <time>2014-05-31T14:19:32Z</time>
      </trkpt>
      <trkpt lat="56.3579394" lon="13.6478178">
        <ele>120.302</ele>
        <time>2014-05-31T14:19:38Z</time>
      </trkpt>
      <trkpt lat="56.3580306" lon="13.6480742">
        <ele>118.86</ele>
        <time>2014-05-31T14:19:44Z</time>
      </trkpt>
      <trkpt lat="56.3580793" lon="13.6483103">
        <ele>119.821</ele>
        <time>2014-05-31T14:19:49Z</time>
      </trkpt>
      <trkpt lat="56.3581317" lon="13.6484723">
        <ele>120.783</ele>
        <time>2014-05-31T14:19:53Z</time>
      </trkpt>
      <trkpt lat="56.3581872" lon="13.6486014">
        <ele>121.744</ele>
        <time>2014-05-31T14:19:57Z</time>
      </trkpt>
      <trkpt lat="56.3582923" lon="13.648794">
        <ele>124.147</ele>
        <time>2014-05-31T14:20:03Z</time>
      </trkpt>
      <trkpt lat="56.358398" lon="13.6489588">
        <ele>125.589</ele>
        <time>2014-05-31T14:20:08Z</time>
      </trkpt>
      <trkpt lat="56.358499" lon="13.6491195">
        <ele>126.551</ele>
        <time>2014-05-31T14:20:13Z</time>
      </trkpt>
      <trkpt lat="56.3586295" lon="13.6493329">
        <ele>127.031</ele>
        <time>2014-05-31T14:20:19Z</time>
      </trkpt>
      <trkpt lat="56.3586736" lon="13.6493928">
        <ele>126.551</ele>
        <time>2014-05-31T14:20:21Z</time>
      </trkpt>
      <trkpt lat="56.3588191" lon="13.6494976">
        <ele>126.07</ele>
        <time>2014-05-31T14:20:27Z</time>
      </trkpt>
      <trkpt lat="56.3589609" lon="13.649494">
        <ele>124.628</ele>
        <time>2014-05-31T14:20:32Z</time>
      </trkpt>
      <trkpt lat="56.3590988" lon="13.6494151">
        <ele>122.705</ele>
        <time>2014-05-31T14:20:38Z</time>
      </trkpt>
      <trkpt lat="56.3592136" lon="13.649334">
        <ele>122.225</ele>
        <time>2014-05-31T14:20:43Z</time>
      </trkpt>
      <trkpt lat="56.3593434" lon="13.6492344">
        <ele>122.225</ele>
        <time>2014-05-31T14:20:49Z</time>
      </trkpt>
      <trkpt lat="56.3594158" lon="13.6491899">
        <ele>122.225</ele>
        <time>2014-05-31T14:20:52Z</time>
      </trkpt>
      <trkpt lat="56.3595381" lon="13.6491548">
        <ele>122.225</ele>
        <time>2014-05-31T14:20:57Z</time>
      </trkpt>
      <trkpt lat="56.3595649" lon="13.6491506">
        <ele>122.225</ele>
        <time>2014-05-31T14:20:58Z</time>
      </trkpt>
      <trkpt lat="56.3597553" lon="13.6492158">
        <ele>120.302</ele>
        <time>2014-05-31T14:21:05Z</time>
      </trkpt>
      <trkpt lat="56.3598831" lon="13.6492908">
        <ele>119.341</ele>
        <time>2014-05-31T14:21:10Z</time>
      </trkpt>
      <trkpt lat="56.3600188" lon="13.6493491">
        <ele>118.86</ele>
        <time>2014-05-31T14:21:15Z</time>
      </trkpt>
      <trkpt lat="56.3601794" lon="13.6493812">
        <ele>117.899</ele>
        <time>2014-05-31T14:21:21Z</time>
      </trkpt>
      <trkpt lat="56.3602583" lon="13.649379">
        <ele>117.899</ele>
        <time>2014-05-31T14:21:24Z</time>
      </trkpt>
      <trkpt lat="56.360379" lon="13.649366">
        <ele>116.938</ele>
        <time>2014-05-31T14:21:29Z</time>
      </trkpt>
      <trkpt lat="56.3604833" lon="13.6495789">
        <ele>116.938</ele>
        <time>2014-05-31T14:21:35Z</time>
      </trkpt>
      <trkpt lat="56.3605643" lon="13.6497721">
        <ele>118.379</ele>
        <time>2014-05-31T14:21:40Z</time>
      </trkpt>
      <trkpt lat="56.360602" lon="13.6499344">
        <ele>118.86</ele>
        <time>2014-05-31T14:21:44Z</time>
      </trkpt>
      <trkpt lat="56.3605944" lon="13.6500222">
        <ele>119.821</ele>
        <time>2014-05-31T14:21:46Z</time>
      </trkpt>
      <trkpt lat="56.3605457" lon="13.6503232">
        <ele>120.783</ele>
        <time>2014-05-31T14:21:53Z</time>
      </trkpt>
      <trkpt lat="56.3605114" lon="13.6505906">
        <ele>121.744</ele>
        <time>2014-05-31T14:21:59Z</time>
      </trkpt>
      <trkpt lat="56.3604843" lon="13.6508011">
        <ele>122.705</ele>
        <time>2014-05-31T14:22:04Z</time>
      </trkpt>
      <trkpt lat="56.3604545" lon="13.6510992">
        <ele>123.186</ele>
        <time>2014-05-31T14:22:11Z</time>
      </trkpt>
      <trkpt lat="56.360436" lon="13.6513329">
        <ele>123.667</ele>
        <time>2014-05-31T14:22:16Z</time>
      </trkpt>
      <trkpt lat="56.3604494" lon="13.6515301">
        <ele>124.147</ele>
        <time>2014-05-31T14:22:20Z</time>
      </trkpt>
      <trkpt lat="56.3604622" lon="13.6518414">
        <ele>124.147</ele>
        <time>2014-05-31T14:22:27Z</time>
      </trkpt>
      <trkpt lat="56.3604566" lon="13.6519324">
        <ele>124.147</ele>
        <time>2014-05-31T14:22:29Z</time>
      </trkpt>
      <trkpt lat="56.3604551" lon="13.6521764">
        <ele>124.628</ele>
        <time>2014-05-31T14:22:34Z</time>
      </trkpt>
      <trkpt lat="56.3604437" lon="13.6525766">
        <ele>125.109</ele>
        <time>2014-05-31T14:22:42Z</time>
      </trkpt>
      <trkpt lat="56.360443" lon="13.6528766">
        <ele>125.589</ele>
        <time>2014-05-31T14:22:48Z</time>
      </trkpt>
      <trkpt lat="56.3604116" lon="13.6531178">
        <ele>127.512</ele>
        <time>2014-05-31T14:22:53Z</time>
      </trkpt>
      <trkpt lat="56.3603396" lon="13.6532271">
        <ele>127.512</ele>
        <time>2014-05-31T14:22:57Z</time>
      </trkpt>
      <trkpt lat="56.3602455" lon="13.6532782">
        <ele>125.589</ele>
        <time>2014-05-31T14:23:01Z</time>
      </trkpt>
      <trkpt lat="56.3601192" lon="13.6533559">
        <ele>122.705</ele>
        <time>2014-05-31T14:23:06Z</time>
      </trkpt>
      <trkpt lat="56.3599438" lon="13.6534636">
        <ele>120.302</ele>
        <time>2014-05-31T14:23:12Z</time>
      </trkpt>
      <trkpt lat="56.3598174" lon="13.6535329">
        <ele>119.821</ele>
        <time>2014-05-31T14:23:16Z</time>
      </trkpt>
      <trkpt lat="56.3597006" lon="13.6536061">
        <ele>119.341</ele>
        <time>2014-05-31T14:23:20Z</time>
      </trkpt>
      <trkpt lat="56.3596536" lon="13.6536329">
        <ele>119.341</ele>
        <time>2014-05-31T14:23:22Z</time>
      </trkpt>
      <trkpt lat="56.3595055" lon="13.6537568">
        <ele>119.821</ele>
        <time>2014-05-31T14:23:28Z</time>
      </trkpt>
      <trkpt lat="56.3593779" lon="13.6539231">
        <ele>118.86</ele>
        <time>2014-05-31T14:23:34Z</time>
      </trkpt>
      <trkpt lat="56.3592641" lon="13.6540915">
        <ele>118.379</ele>
        <time>2014-05-31T14:23:40Z</time>
      </trkpt>
      <trkpt lat="56.3591963" lon="13.6541997">
        <ele>118.379</ele>
        <time>2014-05-31T14:23:44Z</time>
      </trkpt>
      <trkpt lat="56.3591134" lon="13.6543333">
        <ele>118.86</ele>
        <time>2014-05-31T14:23:48Z</time>
      </trkpt>
      <trkpt lat="56.3589782" lon="13.6545695">
        <ele>119.821</ele>
        <time>2014-05-31T14:23:55Z</time>
      </trkpt>
      <trkpt lat="56.358884" lon="13.6547293">
        <ele>119.821</ele>
        <time>2014-05-31T14:24:00Z</time>
      </trkpt>
      <trkpt lat="56.3587775" lon="13.6548863">
        <ele>120.302</ele>
        <time>2014-05-31T14:24:06Z</time>
      </trkpt>
      <trkpt lat="56.3586533" lon="13.655044">
        <ele>121.264</ele>
        <time>2014-05-31T14:24:13Z</time>
      </trkpt>
      <trkpt lat="56.3584993" lon="13.6551932">
        <ele>121.744</ele>
        <time>2014-05-31T14:24:19Z</time>
      </trkpt>
      <trkpt lat="56.358391" lon="13.6553154">
        <ele>121.744</ele>
        <time>2014-05-31T14:24:24Z</time>
      </trkpt>
      <trkpt lat="56.3582839" lon="13.6554661">
        <ele>123.186</ele>
        <time>2014-05-31T14:24:30Z</time>
      </trkpt>
      <trkpt lat="56.358188" lon="13.6555842">
        <ele>123.186</ele>
        <time>2014-05-31T14:24:34Z</time>
      </trkpt>
      <trkpt lat="56.358082" lon="13.6557288">
        <ele>123.186</ele>
        <time>2014-05-31T14:24:39Z</time>
      </trkpt>
      <trkpt lat="56.3579302" lon="13.6558917">
        <ele>122.705</ele>
        <time>2014-05-31T14:24:45Z</time>
      </trkpt>
      <trkpt lat="56.3577546" lon="13.6560243">
        <ele>124.147</ele>
        <time>2014-05-31T14:24:51Z</time>
      </trkpt>
      <trkpt lat="56.3575775" lon="13.6561318">
        <ele>125.589</ele>
        <time>2014-05-31T14:24:57Z</time>
      </trkpt>
      <trkpt lat="56.3574563" lon="13.6561737">
        <ele>126.07</ele>
        <time>2014-05-31T14:25:01Z</time>
      </trkpt>
      <trkpt lat="56.3574261" lon="13.6561809">
        <ele>126.07</ele>
        <time>2014-05-31T14:25:02Z</time>
      </trkpt>
      <trkpt lat="56.3573071" lon="13.6562271">
        <ele>126.551</ele>
        <time>2014-05-31T14:25:06Z</time>
      </trkpt>
      <trkpt lat="56.357206" lon="13.6562789">
        <ele>127.031</ele>
        <time>2014-05-31T14:25:10Z</time>
      </trkpt>
      <trkpt lat="56.3571165" lon="13.6563404">
        <ele>127.031</ele>
        <time>2014-05-31T14:25:14Z</time>
      </trkpt>
      <trkpt lat="56.3570121" lon="13.656417">
        <ele>127.993</ele>
        <time>2014-05-31T14:25:18Z</time>
      </trkpt>
      <trkpt lat="56.3569332" lon="13.6564717">
        <ele>128.473</ele>
        <time>2014-05-31T14:25:21Z</time>
      </trkpt>
      <trkpt lat="56.3569119" lon="13.6564871">
        <ele>128.473</ele>
        <time>2014-05-31T14:25:22Z</time>
      </trkpt>
      <trkpt lat="56.35683" lon="13.6565277">
        <ele>128.473</ele>
        <time>2014-05-31T14:25:26Z</time>
      </trkpt>
      <trkpt lat="56.3567491" lon="13.6565548">
        <ele>128.473</ele>
        <time>2014-05-31T14:25:29Z</time>
      </trkpt>
      <trkpt lat="56.35663" lon="13.656569">
        <ele>128.473</ele>
        <time>2014-05-31T14:25:33Z</time>
      </trkpt>
      <trkpt lat="56.3563871" lon="13.6566105">
        <ele>128.954</ele>
        <time>2014-05-31T14:25:41Z</time>
      </trkpt>
      <trkpt lat="56.3562467" lon="13.65667">
        <ele>129.435</ele>
        <time>2014-05-31T14:25:46Z</time>
      </trkpt>
      <trkpt lat="56.3560984" lon="13.6567359">
        <ele>129.435</ele>
        <time>2014-05-31T14:25:52Z</time>
      </trkpt>
      <trkpt lat="56.3559499" lon="13.6568473">
        <ele>128.473</ele>
        <time>2014-05-31T14:25:58Z</time>
      </trkpt>
      <trkpt lat="56.3558171" lon="13.6569694">
        <ele>127.512</ele>
        <time>2014-05-31T14:26:03Z</time>
      </trkpt>
      <trkpt lat="56.3556935" lon="13.6570775">
        <ele>127.031</ele>
        <time>2014-05-31T14:26:08Z</time>
      </trkpt>
      <trkpt lat="56.3555433" lon="13.6572208">
        <ele>127.512</ele>
        <time>2014-05-31T14:26:14Z</time>
      </trkpt>
      <trkpt lat="56.3554256" lon="13.6573274">
        <ele>127.512</ele>
        <time>2014-05-31T14:26:19Z</time>
      </trkpt>
      <trkpt lat="56.3552279" lon="13.6575318">
        <ele>126.551</ele>
        <time>2014-05-31T14:26:27Z</time>
      </trkpt>
      <trkpt lat="56.3550895" lon="13.6576585">
        <ele>126.551</ele>
        <time>2014-05-31T14:26:32Z</time>
      </trkpt>
      <trkpt lat="56.3549693" lon="13.6577852">
        <ele>126.07</ele>
        <time>2014-05-31T14:26:37Z</time>
      </trkpt>
      <trkpt lat="56.3547824" lon="13.6579796">
        <ele>127.031</ele>
        <time>2014-05-31T14:26:44Z</time>
      </trkpt>
      <trkpt lat="56.3547347" lon="13.6580391">
        <ele>127.031</ele>
        <time>2014-05-31T14:26:46Z</time>
      </trkpt>
      <trkpt lat="56.3546583" lon="13.6579298">
        <ele>126.07</ele>
        <time>2014-05-31T14:26:50Z</time>
      </trkpt>
      <trkpt lat="56.3546476" lon="13.6578769">
        <ele>126.07</ele>
        <time>2014-05-31T14:26:51Z</time>
      </trkpt>
      <trkpt lat="56.3545605" lon="13.6574537">
        <ele>125.589</ele>
        <time>2014-05-31T14:26:59Z</time>
      </trkpt>
      <trkpt lat="56.3545322" lon="13.6572788">
        <ele>124.628</ele>
        <time>2014-05-31T14:27:03Z</time>
      </trkpt>
      <trkpt lat="56.354473" lon="13.6571467">
        <ele>125.109</ele>
        <time>2014-05-31T14:27:07Z</time>
      </trkpt>
      <trkpt lat="56.3543403" lon="13.6570746">
        <ele>125.109</ele>
        <time>2014-05-31T14:27:12Z</time>
      </trkpt>
      <trkpt lat="56.3542068" lon="13.6570946">
        <ele>124.628</ele>
        <time>2014-05-31T14:27:17Z</time>
      </trkpt>
      <trkpt lat="56.3541384" lon="13.6570999">
        <ele>124.628</ele>
        <time>2014-05-31T14:27:20Z</time>
      </trkpt>
      <trkpt lat="56.3540612" lon="13.6571627">
        <ele>123.186</ele>
        <time>2014-05-31T14:27:25Z</time>
      </trkpt>
      <trkpt lat="56.3540056" lon="13.6571995">
        <ele>121.744</ele>
        <time>2014-05-31T14:27:27Z</time>
      </trkpt>
      <trkpt lat="56.3539476" lon="13.657271">
        <ele>121.264</ele>
        <time>2014-05-31T14:27:29Z</time>
      </trkpt>
      <trkpt lat="56.3538188" lon="13.6575273">
        <ele>119.341</ele>
        <time>2014-05-31T14:27:34Z</time>
      </trkpt>
      <trkpt lat="56.3537562" lon="13.6577735">
        <ele>120.302</ele>
        <time>2014-05-31T14:27:38Z</time>
      </trkpt>
      <trkpt lat="56.3536844" lon="13.6578163">
        <ele>119.341</ele>
        <time>2014-05-31T14:27:40Z</time>
      </trkpt>
      <trkpt lat="56.3536397" lon="13.6577444">
        <ele>118.86</ele>
        <time>2014-05-31T14:27:42Z</time>
      </trkpt>
      <trkpt lat="56.3535479" lon="13.6574307">
        <ele>117.899</ele>
        <time>2014-05-31T14:27:49Z</time>
      </trkpt>
      <trkpt lat="56.3535321" lon="13.6573936">
        <ele>117.418</ele>
        <time>2014-05-31T14:27:50Z</time>
      </trkpt>
      <trkpt lat="56.3534878" lon="13.6572253">
        <ele>116.457</ele>
        <time>2014-05-31T14:27:54Z</time>
      </trkpt>
      <trkpt lat="56.353415" lon="13.6569544">
        <ele>115.496</ele>
        <time>2014-05-31T14:27:59Z</time>
      </trkpt>
      <trkpt lat="56.353407" lon="13.656921">
        <ele>115.496</ele>
        <time>2014-05-31T14:28:00Z</time>
      </trkpt>
      <trkpt lat="56.3533982" lon="13.656891">
        <ele>115.496</ele>
        <time>2014-05-31T14:28:04Z</time>
      </trkpt>
      <trkpt lat="56.3533843" lon="13.6569366">
        <ele>115.976</ele>
        <time>2014-05-31T14:28:10Z</time>
      </trkpt>
      <trkpt lat="56.3534117" lon="13.6571254">
        <ele>117.418</ele>
        <time>2014-05-31T14:28:18Z</time>
      </trkpt>
      <trkpt lat="56.3534537" lon="13.6573155">
        <ele>118.86</ele>
        <time>2014-05-31T14:28:26Z</time>
      </trkpt>
      <trkpt lat="56.3534705" lon="13.6573522">
        <ele>119.821</ele>
        <time>2014-05-31T14:28:28Z</time>
      </trkpt>
      <trkpt lat="56.3534972" lon="13.6574588">
        <ele>121.744</ele>
        <time>2014-05-31T14:28:34Z</time>
      </trkpt>
      <trkpt lat="56.3535317" lon="13.6575561">
        <ele>122.225</ele>
        <time>2014-05-31T14:28:40Z</time>
      </trkpt>
      <trkpt lat="56.3535506" lon="13.6576642">
        <ele>122.225</ele>
        <time>2014-05-31T14:28:44Z</time>
      </trkpt>
      <trkpt lat="56.3535893" lon="13.6580415">
        <ele>121.744</ele>
        <time>2014-05-31T14:28:50Z</time>
      </trkpt>
      <trkpt lat="56.3535826" lon="13.658306">
        <ele>120.783</ele>
        <time>2014-05-31T14:28:54Z</time>
      </trkpt>
      <trkpt lat="56.353565" lon="13.6585427">
        <ele>119.821</ele>
        <time>2014-05-31T14:28:58Z</time>
      </trkpt>
      <trkpt lat="56.3535549" lon="13.6588311">
        <ele>118.379</ele>
        <time>2014-05-31T14:29:02Z</time>
      </trkpt>
      <trkpt lat="56.3535151" lon="13.6591818">
        <ele>115.976</ele>
        <time>2014-05-31T14:29:07Z</time>
      </trkpt>
      <trkpt lat="56.3534416" lon="13.6595771">
        <ele>114.534</ele>
        <time>2014-05-31T14:29:13Z</time>
      </trkpt>
      <trkpt lat="56.3534235" lon="13.6597361">
        <ele>114.054</ele>
        <time>2014-05-31T14:29:15Z</time>
      </trkpt>
      <trkpt lat="56.3533006" lon="13.6600276">
        <ele>114.054</ele>
        <time>2014-05-31T14:29:20Z</time>
      </trkpt>
      <trkpt lat="56.3532644" lon="13.6600239">
        <ele>114.054</ele>
        <time>2014-05-31T14:29:21Z</time>
      </trkpt>
      <trkpt lat="56.3531972" lon="13.6600107">
        <ele>114.054</ele>
        <time>2014-05-31T14:29:23Z</time>
      </trkpt>
      <trkpt lat="56.3530247" lon="13.6600123">
        <ele>114.534</ele>
        <time>2014-05-31T14:29:29Z</time>
      </trkpt>
      <trkpt lat="56.3528955" lon="13.6601879">
        <ele>114.534</ele>
        <time>2014-05-31T14:29:35Z</time>
      </trkpt>
      <trkpt lat="56.3527729" lon="13.6603613">
        <ele>113.573</ele>
        <time>2014-05-31T14:29:40Z</time>
      </trkpt>
      <trkpt lat="56.3525503" lon="13.6605855">
        <ele>113.092</ele>
        <time>2014-05-31T14:29:46Z</time>
      </trkpt>
      <trkpt lat="56.3523336" lon="13.6609397">
        <ele>111.65</ele>
        <time>2014-05-31T14:29:51Z</time>
      </trkpt>
      <trkpt lat="56.3521317" lon="13.6613254">
        <ele>112.612</ele>
        <time>2014-05-31T14:29:56Z</time>
      </trkpt>
      <trkpt lat="56.3520125" lon="13.6615196">
        <ele>113.573</ele>
        <time>2014-05-31T14:30:00Z</time>
      </trkpt>
      <trkpt lat="56.3519503" lon="13.6616129">
        <ele>113.573</ele>
        <time>2014-05-31T14:30:02Z</time>
      </trkpt>
      <trkpt lat="56.3517508" lon="13.6617807">
        <ele>114.534</ele>
        <time>2014-05-31T14:30:07Z</time>
      </trkpt>
      <trkpt lat="56.3515243" lon="13.6618445">
        <ele>114.054</ele>
        <time>2014-05-31T14:30:12Z</time>
      </trkpt>
      <trkpt lat="56.3510636" lon="13.6617777">
        <ele>113.092</ele>
        <time>2014-05-31T14:30:21Z</time>
      </trkpt>
      <trkpt lat="56.3508454" lon="13.6617521">
        <ele>113.092</ele>
        <time>2014-05-31T14:30:25Z</time>
      </trkpt>
      <trkpt lat="56.350692" lon="13.661768">
        <ele>113.092</ele>
        <time>2014-05-31T14:30:28Z</time>
      </trkpt>
      <trkpt lat="56.3505523" lon="13.6617103">
        <ele>112.612</ele>
        <time>2014-05-31T14:30:31Z</time>
      </trkpt>
      <trkpt lat="56.350357" lon="13.6617019">
        <ele>111.65</ele>
        <time>2014-05-31T14:30:35Z</time>
      </trkpt>
      <trkpt lat="56.350105" lon="13.6616912">
        <ele>111.17</ele>
        <time>2014-05-31T14:30:40Z</time>
      </trkpt>
      <trkpt lat="56.3500167" lon="13.6615346">
        <ele>111.17</ele>
        <time>2014-05-31T14:30:43Z</time>
      </trkpt>
      <trkpt lat="56.3500201" lon="13.6613632">
        <ele>110.208</ele>
        <time>2014-05-31T14:30:45Z</time>
      </trkpt>
      <trkpt lat="56.3500345" lon="13.6610813">
        <ele>109.728</ele>
        <time>2014-05-31T14:30:48Z</time>
      </trkpt>
      <trkpt lat="56.349953" lon="13.6609134">
        <ele>109.728</ele>
        <time>2014-05-31T14:30:51Z</time>
      </trkpt>
      <trkpt lat="56.3499073" lon="13.660911">
        <ele>109.728</ele>
        <time>2014-05-31T14:30:52Z</time>
      </trkpt>
      <trkpt lat="56.3495346" lon="13.6609494">
        <ele>109.728</ele>
        <time>2014-05-31T14:31:00Z</time>
      </trkpt>
      <trkpt lat="56.3493925" lon="13.6609368">
        <ele>109.728</ele>
        <time>2014-05-31T14:31:03Z</time>
      </trkpt>
      <trkpt lat="56.3489099" lon="13.6609545">
        <ele>109.728</ele>
        <time>2014-05-31T14:31:13Z</time>
      </trkpt>
      <trkpt lat="56.3485571" lon="13.6609576">
        <ele>109.728</ele>
        <time>2014-05-31T14:31:20Z</time>
      </trkpt>
      <trkpt lat="56.3481843" lon="13.6609374">
        <ele>108.286</ele>
        <time>2014-05-31T14:31:27Z</time>
      </trkpt>
      <trkpt lat="56.3477844" lon="13.6608281">
        <ele>107.805</ele>
        <time>2014-05-31T14:31:34Z</time>
      </trkpt>
      <trkpt lat="56.3472338" lon="13.6606671">
        <ele>108.766</ele>
        <time>2014-05-31T14:31:44Z</time>
      </trkpt>
      <trkpt lat="56.3470164" lon="13.6605789">
        <ele>109.247</ele>
        <time>2014-05-31T14:31:49Z</time>
      </trkpt>
      <trkpt lat="56.3469378" lon="13.6605521">
        <ele>109.728</ele>
        <time>2014-05-31T14:31:51Z</time>
      </trkpt>
      <trkpt lat="56.34665" lon="13.6604686">
        <ele>111.17</ele>
        <time>2014-05-31T14:31:59Z</time>
      </trkpt>
      <trkpt lat="56.3465807" lon="13.660438">
        <ele>111.17</ele>
        <time>2014-05-31T14:32:01Z</time>
      </trkpt>
      <trkpt lat="56.3465572" lon="13.6602223">
        <ele>111.65</ele>
        <time>2014-05-31T14:32:05Z</time>
      </trkpt>
      <trkpt lat="56.3465708" lon="13.660093">
        <ele>112.131</ele>
        <time>2014-05-31T14:32:07Z</time>
      </trkpt>
      <trkpt lat="56.3465975" lon="13.6596138">
        <ele>113.573</ele>
        <time>2014-05-31T14:32:15Z</time>
      </trkpt>
      <trkpt lat="56.3466183" lon="13.6592502">
        <ele>114.054</ele>
        <time>2014-05-31T14:32:22Z</time>
      </trkpt>
      <trkpt lat="56.3466127" lon="13.6589102">
        <ele>114.534</ele>
        <time>2014-05-31T14:32:28Z</time>
      </trkpt>
      <trkpt lat="56.3465381" lon="13.6584779">
        <ele>115.015</ele>
        <time>2014-05-31T14:32:35Z</time>
      </trkpt>
      <trkpt lat="56.3463781" lon="13.65789">
        <ele>115.015</ele>
        <time>2014-05-31T14:32:44Z</time>
      </trkpt>
      <trkpt lat="56.3462641" lon="13.6576501">
        <ele>115.015</ele>
        <time>2014-05-31T14:32:48Z</time>
      </trkpt>
      <trkpt lat="56.3459488" lon="13.6573406">
        <ele>115.496</ele>
        <time>2014-05-31T14:32:56Z</time>
      </trkpt>
      <trkpt lat="56.3455605" lon="13.657018">
        <ele>115.496</ele>
        <time>2014-05-31T14:33:05Z</time>
      </trkpt>
      <trkpt lat="56.3455161" lon="13.6569818">
        <ele>115.496</ele>
        <time>2014-05-31T14:33:06Z</time>
      </trkpt>
      <trkpt lat="56.3451773" lon="13.6566659">
        <ele>115.015</ele>
        <time>2014-05-31T14:33:14Z</time>
      </trkpt>
      <trkpt lat="56.3448981" lon="13.6563327">
        <ele>114.534</ele>
        <time>2014-05-31T14:33:21Z</time>
      </trkpt>
      <trkpt lat="56.3445976" lon="13.6557794">
        <ele>113.092</ele>
        <time>2014-05-31T14:33:29Z</time>
      </trkpt>
      <trkpt lat="56.344359" lon="13.6553081">
        <ele>110.208</ele>
        <time>2014-05-31T14:33:34Z</time>
      </trkpt>
      <trkpt lat="56.3442874" lon="13.6548667">
        <ele>109.247</ele>
        <time>2014-05-31T14:33:38Z</time>
      </trkpt>
      <trkpt lat="56.3442682" lon="13.6544164">
        <ele>109.247</ele>
        <time>2014-05-31T14:33:42Z</time>
      </trkpt>
      <trkpt lat="56.344196" lon="13.6541155">
        <ele>109.247</ele>
        <time>2014-05-31T14:33:45Z</time>
      </trkpt>
      <trkpt lat="56.3441401" lon="13.6538147">
        <ele>110.208</ele>
        <time>2014-05-31T14:33:48Z</time>
      </trkpt>
      <trkpt lat="56.3441133" lon="13.6533339">
        <ele>110.208</ele>
        <time>2014-05-31T14:33:53Z</time>
      </trkpt>
      <trkpt lat="56.3441977" lon="13.6528387">
        <ele>110.208</ele>
        <time>2014-05-31T14:33:59Z</time>
      </trkpt>
      <trkpt lat="56.3442201" lon="13.652757">
        <ele>110.208</ele>
        <time>2014-05-31T14:34:00Z</time>
      </trkpt>
      <trkpt lat="56.3442748" lon="13.6524973">
        <ele>109.728</ele>
        <time>2014-05-31T14:34:03Z</time>
      </trkpt>
      <trkpt lat="56.3443335" lon="13.6519355">
        <ele>109.728</ele>
        <time>2014-05-31T14:34:09Z</time>
      </trkpt>
      <trkpt lat="56.3444749" lon="13.6516306">
        <ele>110.208</ele>
        <time>2014-05-31T14:34:14Z</time>
      </trkpt>
      <trkpt lat="56.3445126" lon="13.6515929">
        <ele>110.208</ele>
        <time>2014-05-31T14:34:15Z</time>
      </trkpt>
      <trkpt lat="56.344603" lon="13.6514858">
        <ele>111.17</ele>
        <time>2014-05-31T14:34:18Z</time>
      </trkpt>
      <trkpt lat="56.3447741" lon="13.6513108">
        <ele>113.092</ele>
        <time>2014-05-31T14:34:26Z</time>
      </trkpt>
      <trkpt lat="56.344887" lon="13.6511835">
        <ele>113.573</ele>
        <time>2014-05-31T14:34:33Z</time>
      </trkpt>
      <trkpt lat="56.3450307" lon="13.6510303">
        <ele>114.534</ele>
        <time>2014-05-31T14:34:40Z</time>
      </trkpt>
      <trkpt lat="56.3452104" lon="13.6508319">
        <ele>115.015</ele>
        <time>2014-05-31T14:34:46Z</time>
      </trkpt>
      <trkpt lat="56.3454944" lon="13.6504969">
        <ele>115.496</ele>
        <time>2014-05-31T14:34:54Z</time>
      </trkpt>
      <trkpt lat="56.345814" lon="13.6501362">
        <ele>115.496</ele>
        <time>2014-05-31T14:35:02Z</time>
      </trkpt>
      <trkpt lat="56.3460899" lon="13.6498074">
        <ele>115.496</ele>
        <time>2014-05-31T14:35:09Z</time>
      </trkpt>
      <trkpt lat="56.3463052" lon="13.6495765">
        <ele>114.054</ele>
        <time>2014-05-31T14:35:15Z</time>
      </trkpt>
      <trkpt lat="56.3465204" lon="13.6493272">
        <ele>114.534</ele>
        <time>2014-05-31T14:35:21Z</time>
      </trkpt>
      <trkpt lat="56.3465945" lon="13.6492464">
        <ele>115.015</ele>
        <time>2014-05-31T14:35:23Z</time>
      </trkpt>
      <trkpt lat="56.3468702" lon="13.648924">
        <ele>115.976</ele>
        <time>2014-05-31T14:35:30Z</time>
      </trkpt>
      <trkpt lat="56.3471519" lon="13.6486035">
        <ele>116.457</ele>
        <time>2014-05-31T14:35:37Z</time>
      </trkpt>
      <trkpt lat="56.347455" lon="13.6482506">
        <ele>116.938</ele>
        <time>2014-05-31T14:35:45Z</time>
      </trkpt>
      <trkpt lat="56.3476202" lon="13.6480714">
        <ele>116.938</ele>
        <time>2014-05-31T14:35:49Z</time>
      </trkpt>
      <trkpt lat="56.3478612" lon="13.647787">
        <ele>116.457</ele>
        <time>2014-05-31T14:35:55Z</time>
      </trkpt>
      <trkpt lat="56.3481176" lon="13.6474811">
        <ele>116.938</ele>
        <time>2014-05-31T14:36:02Z</time>
      </trkpt>
      <trkpt lat="56.3484082" lon="13.6471377">
        <ele>117.418</ele>
        <time>2014-05-31T14:36:10Z</time>
      </trkpt>
      <trkpt lat="56.3486546" lon="13.6468476">
        <ele>115.976</ele>
        <time>2014-05-31T14:36:17Z</time>
      </trkpt>
      <trkpt lat="56.3487535" lon="13.6467237">
        <ele>116.457</ele>
        <time>2014-05-31T14:36:20Z</time>
      </trkpt>
      <trkpt lat="56.3488842" lon="13.6464927">
        <ele>116.457</ele>
        <time>2014-05-31T14:36:25Z</time>
      </trkpt>
      <trkpt lat="56.3488592" lon="13.6463378">
        <ele>116.457</ele>
        <time>2014-05-31T14:36:29Z</time>
      </trkpt>
    </trkseg>
  </trk>
</gpx>